createdAt,value
2018-06-27T00:02:28.075Z,6.83
2018-06-27T00:04:57.791Z,5.00
2018-06-27T00:07:30.148Z,6.33
2018-06-27T00:10:01.168Z,7.17
2018-06-27T00:12:33.880Z,9.03
2018-06-27T00:15:12.391Z,6.03
2018-06-27T00:17:41.588Z,5.70
2018-06-27T00:20:15.917Z,9.50
2018-06-27T00:22:45.675Z,5.70
2018-06-27T00:25:20.143Z,7.80
2018-06-27T00:27:51.069Z,7.23
2018-06-27T00:30:22.295Z,8.73
2018-06-27T00:32:52.515Z,6.10
2018-06-27T00:35:23.292Z,6.97
2018-06-27T00:44:33.953Z,5.97
2018-06-27T00:47:05.511Z,6.25
2018-06-27T00:49:34.560Z,7.97
2018-06-27T00:52:04.615Z,8.60
2018-06-27T00:54:34.007Z,6.23
2018-06-27T00:57:07.392Z,10.03
2018-06-27T00:59:37.540Z,7.27
2018-06-27T01:02:08.235Z,7.23
2018-06-27T01:04:39.583Z,8.13
2018-06-27T01:07:11.002Z,7.00
2018-06-27T01:09:40.930Z,7.67
2018-06-27T01:12:10.983Z,6.60
2018-06-27T01:14:41.630Z,8.27
2018-06-27T01:17:11.370Z,7.40
2018-06-27T01:19:43.450Z,8.37
2018-06-27T01:22:14.412Z,8.17
2018-06-27T01:24:45.738Z,7.97
2018-06-27T01:27:15.204Z,8.90
2018-06-27T01:29:44.656Z,7.53
2018-06-27T01:32:15.750Z,9.83
2018-06-27T01:34:47.747Z,8.03
2018-06-27T01:37:18.048Z,12.37
2018-06-27T01:39:49.196Z,8.20
2018-06-27T01:42:21.309Z,9.97
2018-06-27T01:44:53.674Z,8.57
2018-06-27T01:47:24.727Z,8.10
2018-06-27T01:49:57.550Z,9.35
2018-06-27T01:52:29.287Z,8.58
2018-06-27T01:54:59.213Z,8.43
2018-06-27T01:57:31.741Z,9.20
2018-06-27T02:00:04.143Z,8.13
2018-06-27T02:02:39.326Z,9.20
2018-06-27T02:05:13.957Z,9.07
2018-06-27T02:07:42.497Z,9.20
2018-06-27T02:10:14.331Z,9.87
2018-06-27T02:12:44.644Z,10.03
2018-06-27T02:15:15.861Z,11.35
2018-06-27T02:17:46.004Z,8.27
2018-06-27T02:20:17.096Z,10.40
2018-06-27T02:22:47.144Z,7.97
2018-06-27T02:25:17.260Z,10.88
2018-06-27T02:27:46.228Z,12.87
2018-06-27T02:30:15.013Z,10.70
2018-06-27T02:32:49.075Z,9.57
2018-06-27T02:35:19.908Z,10.50
2018-06-27T02:37:50.026Z,10.70
2018-06-27T02:40:20.420Z,9.30
2018-06-27T02:42:52.328Z,8.47
2018-06-27T02:45:22.985Z,9.50
2018-06-27T02:47:55.272Z,13.20
2018-06-27T02:50:29.345Z,10.10
2018-06-27T02:53:00.518Z,11.35
2018-06-27T02:55:30.310Z,10.10
2018-06-27T02:58:00.205Z,10.43
2018-06-27T03:00:31.612Z,10.10
2018-06-27T03:03:03.715Z,11.68
2018-06-27T03:05:34.354Z,11.43
2018-06-27T03:08:03.160Z,9.50
2018-06-27T03:10:34.964Z,10.07
2018-06-27T03:13:08.807Z,13.53
2018-06-27T03:15:39.376Z,11.83
2018-06-27T03:18:12.812Z,11.13
2018-06-27T03:20:43.933Z,10.17
2018-06-27T03:23:15.203Z,14.00
2018-06-27T03:25:43.711Z,10.90
2018-06-27T03:28:15.149Z,12.98
2018-06-27T03:30:46.993Z,11.55
2018-06-27T03:33:22.497Z,11.73
2018-06-27T03:35:53.162Z,11.97
2018-06-27T03:38:27.240Z,11.73
2018-06-27T03:40:58.944Z,11.40
2018-06-27T03:43:34.159Z,11.17
2018-06-27T03:46:06.911Z,12.40
2018-06-27T03:48:35.435Z,9.83
2018-06-27T03:54:35.210Z,17.67
2018-06-27T03:57:05.559Z,13.00
2018-06-27T03:59:37.854Z,13.45
2018-06-27T04:02:10.094Z,10.63
2018-06-27T04:04:39.774Z,13.38
2018-06-27T04:07:08.409Z,13.68
2018-06-27T04:09:36.927Z,17.13
2018-06-27T04:12:05.524Z,17.30
2018-06-27T04:14:34.107Z,14.77
2018-06-27T04:17:02.599Z,13.68
2018-06-27T04:19:31.117Z,15.90
2018-06-27T04:21:59.656Z,14.55
2018-06-27T04:24:28.872Z,14.00
2018-06-27T04:26:57.363Z,13.38
2018-06-27T04:29:25.884Z,12.05
2018-06-27T04:31:54.709Z,15.88
2018-06-27T04:34:23.252Z,10.77
2018-06-27T04:36:52.594Z,14.90
2018-06-27T04:39:21.164Z,15.70
2018-06-27T04:41:50.049Z,12.90
2018-06-27T04:44:18.716Z,16.80
2018-06-27T04:46:47.424Z,15.37
2018-06-27T04:49:17.604Z,15.63
2018-06-27T04:51:46.145Z,13.50
2018-06-27T04:54:14.662Z,15.90
2018-06-27T04:56:43.284Z,18.25
2018-06-27T04:59:12.834Z,16.60
2018-06-27T05:01:41.461Z,19.37
2018-06-27T05:04:09.978Z,14.50
2018-06-27T05:06:38.508Z,14.43
2018-06-27T05:09:09.431Z,17.53
2018-06-27T05:11:40.327Z,18.03
2018-06-27T05:14:09.228Z,18.47
2018-06-27T05:16:38.031Z,18.25
2018-06-27T05:19:06.552Z,17.03
2018-06-27T05:21:35.100Z,16.70
2018-06-27T05:24:03.635Z,17.27
2018-06-27T05:26:32.152Z,17.40
2018-06-27T05:29:00.652Z,16.77
2018-06-27T05:31:29.241Z,15.68
2018-06-27T05:33:57.827Z,17.50
2018-06-27T05:36:26.330Z,18.10
2018-06-27T05:38:54.902Z,19.77
2018-06-27T05:41:23.432Z,17.67
2018-06-27T05:43:52.582Z,15.53
2018-06-27T05:46:21.122Z,16.50
2018-06-27T05:48:49.689Z,13.45
2018-06-27T05:51:18.543Z,16.10
2018-06-27T05:53:47.063Z,14.13
2018-06-27T05:56:15.562Z,26.55
2018-06-27T05:58:44.036Z,14.03
2018-06-27T06:01:12.591Z,17.70
2018-06-27T06:03:41.071Z,16.90
2018-06-27T06:06:09.609Z,18.70
2018-06-27T06:08:38.173Z,16.83
2018-06-27T06:11:06.837Z,18.03
2018-06-27T06:13:35.440Z,17.25
2018-06-27T06:16:04.323Z,19.00
2018-06-27T06:18:32.846Z,12.67
2018-06-27T06:21:01.553Z,17.60
2018-06-27T06:23:30.140Z,15.87
2018-06-27T06:25:58.704Z,17.63
2018-06-27T06:28:27.891Z,17.35
2018-06-27T06:30:56.360Z,17.70
2018-06-27T06:33:25.187Z,15.03
2018-06-27T06:35:53.821Z,13.93
2018-06-27T06:38:22.391Z,16.03
2018-06-27T06:40:50.964Z,16.93
2018-06-27T06:43:19.471Z,16.13
2018-06-27T06:54:34.346Z,16.43
2018-06-27T06:57:02.846Z,15.23
2018-06-27T06:59:31.390Z,17.83
2018-06-27T07:02:00.576Z,16.03
2018-06-27T07:04:29.134Z,12.40
2018-06-27T07:06:57.629Z,14.13
2018-06-27T07:09:26.115Z,16.10
2018-06-27T07:11:54.724Z,18.62
2018-06-27T07:14:26.182Z,13.68
2018-06-27T07:17:05.856Z,11.73
2018-06-27T07:19:34.460Z,13.08
2018-06-27T07:22:03.813Z,13.45
2018-06-27T07:24:35.961Z,11.60
2018-06-27T07:27:04.684Z,16.70
2018-06-27T07:29:33.184Z,12.67
2018-06-27T07:32:01.687Z,9.65
2018-06-27T07:34:36.393Z,10.40
2018-06-27T07:37:06.642Z,11.90
2018-06-27T08:07:32.616Z,14.80
2018-06-27T08:10:02.822Z,14.23
2018-06-27T08:12:32.135Z,12.02
2018-06-27T08:15:01.762Z,10.53
2018-06-27T08:17:35.499Z,8.40
2018-06-27T08:20:04.082Z,11.93
2018-06-27T08:22:32.594Z,9.80
2018-06-27T08:25:01.124Z,9.80
2018-06-27T08:27:30.738Z,10.43
2018-06-27T08:29:59.234Z,12.15
2018-06-27T08:32:28.883Z,10.90
2018-06-27T08:34:57.456Z,7.90
2018-06-27T08:37:27.006Z,13.15
2018-06-27T08:39:57.058Z,8.83
2018-06-27T08:42:25.856Z,7.30
2018-06-27T08:44:54.403Z,8.63
2018-06-27T08:47:27.413Z,5.90
2018-06-27T08:49:57.722Z,5.65
2018-06-27T08:52:28.337Z,7.00
2018-06-27T09:04:36.100Z,8.23
2018-06-27T09:07:06.612Z,5.70
2018-06-27T09:09:35.452Z,4.97
2018-06-27T09:12:04.463Z,4.33
2018-06-27T09:14:34.649Z,6.57
2018-06-27T09:17:03.562Z,4.80
2018-06-27T09:19:32.037Z,5.23
2018-06-27T09:22:01.194Z,3.67
2018-06-27T09:24:29.879Z,2.90
2018-06-27T09:26:59.864Z,3.15
2018-06-27T09:29:29.350Z,3.03
2018-06-27T09:31:57.896Z,3.92
2018-06-27T09:34:26.482Z,4.40
2018-06-27T09:36:55.032Z,3.20
2018-06-27T09:39:23.542Z,3.57
2018-06-27T09:41:52.047Z,3.30
2018-06-27T09:44:20.587Z,10.57
2018-06-27T09:46:49.998Z,4.07
2018-06-27T09:49:18.648Z,2.87
2018-06-27T09:51:47.241Z,3.62
2018-06-27T09:54:15.920Z,2.97
2018-06-27T09:56:44.524Z,5.37
2018-06-27T09:59:12.963Z,3.33
2018-06-27T10:01:41.616Z,2.52
2018-06-27T10:04:10.205Z,2.93
2018-06-27T10:06:40.356Z,3.17
2018-06-27T10:09:10.273Z,3.23
2018-06-27T10:11:38.990Z,2.90
2018-06-27T10:14:07.655Z,4.20
2018-06-27T10:16:36.307Z,2.90
2018-06-27T10:19:04.883Z,3.00
2018-06-27T10:21:33.758Z,1.93
2018-06-27T10:24:02.354Z,2.97
2018-06-27T10:26:30.918Z,2.67
2018-06-27T10:28:59.438Z,2.30
2018-06-27T10:31:28.356Z,6.13
2018-06-27T10:33:56.885Z,3.00
2018-06-27T10:36:25.450Z,1.60
2018-06-27T10:44:37.384Z,4.10
2018-06-27T10:47:06.100Z,2.20
2018-06-27T10:49:34.717Z,2.27
2018-06-27T10:52:03.248Z,4.80
2018-06-27T10:54:35.496Z,1.90
2018-06-27T10:57:04.119Z,3.05
2018-06-27T10:59:32.727Z,3.33
2018-06-27T11:02:01.549Z,2.53
2018-06-27T11:04:30.191Z,3.17
2018-06-27T11:07:05.231Z,2.87
2018-06-27T11:09:37.589Z,2.30
2018-06-27T11:12:12.996Z,3.20
2018-06-27T11:14:43.215Z,2.40
2018-06-27T11:17:12.986Z,2.10
2018-06-27T11:19:42.735Z,3.40
2018-06-27T11:22:13.296Z,2.40
2018-06-27T11:24:45.704Z,2.30
2018-06-27T11:27:16.085Z,3.27
2018-06-27T11:29:45.507Z,3.67
2018-06-27T11:32:15.914Z,2.80
2018-06-27T11:34:44.692Z,3.93
2018-06-27T11:37:13.874Z,3.20
2018-06-27T11:39:43.912Z,3.53
2018-06-27T11:42:12.526Z,3.17
2018-06-27T11:44:41.096Z,5.40
2018-06-27T11:47:10.564Z,2.97
2018-06-27T11:49:39.589Z,4.40
2018-06-27T11:52:09.651Z,4.17
2018-06-27T11:54:40.834Z,3.87
2018-06-27T11:57:09.709Z,5.20
2018-06-27T11:59:39.281Z,5.40
2018-06-27T12:02:08.676Z,4.20
2018-06-27T12:04:37.353Z,4.60
2018-06-27T12:14:34.171Z,4.63
2018-06-27T12:24:34.049Z,4.13
2018-06-27T12:27:02.625Z,6.63
2018-06-27T12:29:32.007Z,3.90
2018-06-27T12:32:00.603Z,3.20
2018-06-27T12:34:29.149Z,4.17
2018-06-27T12:36:57.820Z,3.03
2018-06-27T12:39:27.016Z,3.00
2018-06-27T12:41:55.572Z,3.50
2018-06-27T12:44:25.129Z,2.83
2018-06-27T12:46:53.931Z,3.33
2018-06-27T12:49:23.349Z,3.30
2018-06-27T12:51:51.983Z,3.27
2018-06-27T12:54:21.495Z,2.80
2018-06-27T12:56:50.856Z,3.03
2018-06-27T12:59:19.500Z,4.90
2018-06-27T13:01:48.024Z,4.03
2018-06-27T13:04:16.584Z,3.40
2018-06-27T13:06:45.061Z,4.20
2018-06-27T13:09:13.875Z,3.40
2018-06-27T13:11:42.324Z,3.40
2018-06-27T13:14:10.953Z,3.03
2018-06-27T13:16:40.357Z,3.27
2018-06-27T13:19:09.205Z,3.60
2018-06-27T13:21:37.776Z,3.30
2018-06-27T13:24:06.310Z,3.30
2018-06-27T13:26:34.824Z,8.57
2018-06-27T13:29:03.427Z,4.80
2018-06-27T13:31:32.006Z,2.50
2018-06-27T13:34:00.562Z,5.30
2018-06-27T13:36:29.142Z,2.22
2018-06-27T13:38:58.570Z,6.70
2018-06-27T13:41:28.048Z,2.70
2018-06-27T13:43:56.628Z,1.97
2018-06-27T13:46:25.188Z,1.97
2018-06-27T13:48:53.733Z,2.15
2018-06-27T13:51:22.450Z,2.10
2018-06-27T13:53:50.993Z,2.47
2018-06-27T13:56:19.551Z,1.80
2018-06-27T13:58:48.052Z,2.07
2018-06-27T14:01:16.588Z,1.43
2018-06-27T14:03:45.173Z,4.30
2018-06-27T14:06:13.631Z,4.70
2018-06-27T14:08:42.233Z,2.07
2018-06-27T14:11:10.757Z,2.10
2018-06-27T14:13:39.389Z,1.67
2018-06-27T14:16:07.997Z,1.60
2018-06-27T14:18:36.960Z,1.70
2018-06-27T14:21:05.620Z,1.67
2018-06-27T14:23:34.394Z,2.13
2018-06-27T14:26:02.927Z,3.67
2018-06-27T14:28:32.501Z,1.52
2018-06-27T14:33:38.053Z,1.53
2018-06-27T14:36:06.907Z,2.95
2018-06-27T14:38:36.019Z,1.65
2018-06-27T14:41:04.219Z,1.50
2018-06-27T14:44:34.523Z,1.67
2018-06-27T14:47:03.089Z,1.50
2018-06-27T14:49:31.637Z,1.40
2018-06-27T14:52:00.461Z,1.57
2018-06-27T14:54:29.314Z,6.53
2018-06-27T14:56:58.291Z,1.98
2018-06-27T14:59:28.138Z,1.70
2018-06-27T15:01:56.616Z,4.40
2018-06-27T15:04:25.206Z,1.50
2018-06-27T15:06:54.351Z,2.12
2018-06-27T15:09:22.897Z,4.83
2018-06-27T15:11:51.521Z,5.13
2018-06-27T15:14:21.187Z,1.80
2018-06-27T15:16:49.792Z,1.60
2018-06-27T15:19:18.391Z,1.50
2018-06-27T15:21:46.938Z,1.50
2018-06-27T15:24:15.489Z,1.67
2018-06-27T15:26:43.979Z,1.40
2018-06-27T15:29:13.871Z,1.87
2018-06-27T15:31:42.636Z,10.73
2018-06-27T15:34:11.481Z,1.70
2018-06-27T15:36:44.018Z,1.97
2018-06-27T15:39:13.143Z,6.20
2018-06-27T15:41:41.993Z,3.57
2018-06-27T15:44:10.560Z,1.50
2018-06-27T15:46:39.035Z,1.60
2018-06-27T15:49:08.737Z,3.40
2018-06-27T15:51:37.365Z,1.90
2018-06-27T15:54:05.931Z,14.95
2018-06-27T15:56:34.426Z,3.80
2018-06-27T15:59:03.466Z,3.60
2018-06-27T16:01:31.972Z,6.25
2018-06-27T16:04:00.541Z,2.40
2018-06-27T16:06:29.018Z,3.90
2018-06-27T16:08:57.526Z,2.30
2018-06-27T16:11:26.078Z,2.60
2018-06-27T16:13:54.568Z,3.10
2018-06-27T16:16:23.137Z,2.63
2018-06-27T16:18:51.723Z,3.27
2018-06-27T16:21:20.514Z,6.90
2018-06-27T16:23:49.169Z,3.27
2018-06-27T16:26:17.681Z,3.60
2018-06-27T16:28:46.391Z,3.27
2018-06-27T16:31:15.563Z,3.90
2018-06-27T16:33:44.134Z,3.27
2018-06-27T16:36:12.625Z,4.13
2018-06-27T16:38:41.108Z,4.10
2018-06-27T16:44:46.127Z,4.12
2018-06-27T16:47:14.733Z,3.92
2018-06-27T16:49:43.241Z,3.85
2018-06-27T16:52:12.831Z,4.20
2018-06-27T16:54:41.727Z,4.47
2018-06-27T16:57:12.130Z,4.03
2018-06-27T16:59:40.802Z,6.83
2018-06-27T17:04:35.875Z,4.47
2018-06-27T17:07:04.418Z,5.97
2018-06-27T17:09:32.960Z,3.73
2018-06-27T17:12:01.454Z,3.67
2018-06-27T17:14:29.915Z,4.10
2018-06-27T17:16:59.161Z,5.30
2018-06-27T17:19:28.227Z,4.20
2018-06-27T17:21:56.546Z,3.73
2018-06-27T17:24:25.143Z,15.30
2018-06-27T17:26:53.660Z,7.42
2018-06-27T17:29:28.644Z,2.77
2018-06-27T17:31:57.241Z,2.90
2018-06-27T17:34:25.838Z,2.50
2018-06-27T17:36:54.442Z,2.80
2018-06-27T17:39:23.156Z,3.20
2018-06-27T17:41:51.692Z,2.87
2018-06-27T17:44:20.252Z,2.80
2018-06-27T17:46:48.891Z,2.63
2018-06-27T17:49:17.452Z,2.80
2018-06-27T17:51:46.115Z,2.93
2018-06-27T17:54:14.693Z,2.30
2018-06-27T17:56:43.295Z,2.67
2018-06-27T17:59:11.908Z,4.70
2018-06-27T18:01:40.652Z,2.87
2018-06-27T18:04:09.220Z,2.37
2018-06-27T18:06:37.887Z,2.03
2018-06-27T18:09:08.751Z,2.33
2018-06-27T18:11:37.630Z,2.45
2018-06-27T18:14:06.218Z,2.93
2018-06-27T18:16:35.296Z,2.73
2018-06-27T18:19:04.011Z,3.40
2018-06-27T18:21:32.881Z,2.97
2018-06-27T18:24:01.457Z,2.60
2018-06-27T18:26:30.155Z,3.20
2018-06-27T18:28:59.902Z,3.22
2018-06-27T18:31:28.365Z,2.73
2018-06-27T18:33:57.136Z,3.03
2018-06-27T18:36:25.959Z,2.63
2018-06-27T18:38:54.775Z,2.90
2018-06-27T18:41:23.484Z,2.60
2018-06-27T18:43:52.290Z,2.70
2018-06-27T18:46:21.064Z,2.87
2018-06-27T18:48:49.908Z,3.10
2018-06-27T18:51:18.613Z,4.07
2018-06-27T18:53:48.459Z,3.43
2018-06-27T18:56:17.243Z,2.90
2018-06-27T18:58:46.167Z,2.87
2018-06-27T19:01:14.957Z,3.10
2018-06-27T19:03:43.682Z,3.50
2018-06-27T19:06:12.412Z,3.40
2018-06-27T19:08:41.098Z,3.20
2018-06-27T19:11:09.735Z,3.60
2018-06-27T19:13:38.421Z,5.40
2018-06-27T19:16:07.103Z,9.77
2018-06-27T19:18:35.905Z,9.33
2018-06-27T19:21:04.547Z,3.10
2018-06-27T19:23:34.639Z,7.10
2018-06-27T19:26:04.825Z,3.23
2018-06-27T19:28:34.881Z,3.83
2018-06-27T19:31:04.923Z,3.67
2018-06-27T19:33:35.250Z,3.20
2018-06-27T19:36:05.525Z,3.15
2018-06-27T19:38:35.920Z,3.60
2018-06-27T19:41:06.236Z,3.43
2018-06-27T19:43:36.216Z,3.10
2018-06-27T19:46:06.374Z,3.45
2018-06-27T19:48:36.697Z,3.40
2018-06-27T19:51:06.791Z,3.60
2018-06-27T19:53:36.747Z,3.17
2018-06-27T19:56:06.920Z,2.97
2018-06-27T19:58:36.718Z,3.33
